Time;durP1;ratioP1;P1;durP2;ratioP2;P2;SDS_P1;SDS_P2;PMS_P1;PMS_P2;Temp;Humidity;BMP_temperature;BMP_pressure;BME280_temperature;BME280_humidity;BME280_pressure;Samples;Min_cycle;Max_cycle;Signal;HPM_P1;HPM_P2
2021/07/28 00:00:06;;;;;;;9.32;3.70;;;18.60;99.90;;;;;;5023228;28;20182;-94
2021/07/28 00:02:32;;;;;;;8.48;3.53;;;18.60;99.90;;;;;;5022543;28;20202;-94
2021/07/28 00:04:57;;;;;;;5.93;3.25;;;18.60;99.90;;;;;;5022901;28;20171;-93
2021/07/28 00:07:23;;;;;;;9.38;3.38;;;18.60;99.90;;;;;;5022334;28;20224;-94
2021/07/28 00:09:53;;;;;;;11.00;3.65;;;18.60;99.90;;;;;;5022649;28;20261;-94
2021/07/28 00:12:25;;;;;;;9.55;3.55;;;18.70;99.90;;;;;;5023090;28;20209;-93
2021/07/28 00:14:55;;;;;;;7.57;3.47;;;18.70;99.90;;;;;;5033940;28;20221;-93
2021/07/28 00:17:23;;;;;;;8.98;3.50;;;18.70;99.90;;;;;;5041123;28;20194;-93
2021/07/28 00:25:05;;;;;;;11.60;3.30;;;18.60;99.90;;;;;;5061011;28;20681;-92
2021/07/28 00:27:34;;;;;;;9.60;3.45;;;18.60;99.90;;;;;;5043109;28;20660;-92
2021/07/28 00:30:09;;;;;;;6.85;3.20;;;18.50;99.90;;;;;;5043383;28;20174;-92
2021/07/28 00:32:37;;;;;;;7.50;3.13;;;18.50;99.90;;;;;;5042184;28;20290;-92
2021/07/28 00:35:18;;;;;;;6.20;3.28;;;18.50;99.90;;;;;;5042551;28;20165;-93
2021/07/28 00:37:49;;;;;;;16.33;3.42;;;18.50;99.90;;;;;;5041899;28;20194;-92
2021/07/28 00:40:17;;;;;;;6.00;3.15;;;18.40;99.90;;;;;;5042716;28;20249;-93
2021/07/28 00:42:47;;;;;;;7.13;3.28;;;18.50;99.90;;;;;;5042389;28;20261;-92
2021/07/28 00:45:13;;;;;;;6.32;3.10;;;18.50;99.90;;;;;;5042804;28;20182;-92
2021/07/28 00:47:51;;;;;;;6.80;3.42;;;18.50;99.90;;;;;;5042421;28;20728;-93
2021/07/28 00:50:50;;;;;;;9.48;3.08;;;18.40;99.90;;;;;;5042391;28;20166;-92
2021/07/28 00:53:20;;;;;;;7.57;3.13;;;18.40;99.90;;;;;;5042526;28;20213;-94
2021/07/28 00:55:56;;;;;;;13.65;3.40;;;18.40;99.90;;;;;;5042091;28;20178;-92
2021/07/28 00:58:51;;;;;;;8.88;3.40;;;18.40;99.90;;;;;;5042347;28;20193;-92
2021/07/28 01:01:17;;;;;;;8.30;3.50;;;18.40;99.90;;;;;;5042345;28;20162;-94
2021/07/28 01:03:52;;;;;;;5.97;3.28;;;18.40;99.90;;;;;;5041549;28;20223;-92
2021/07/28 01:06:21;;;;;;;9.70;3.20;;;18.40;99.90;;;;;;5041132;28;20208;-94
2021/07/28 01:08:49;;;;;;;8.10;3.33;;;18.30;99.90;;;;;;5040887;28;20165;-94
2021/07/28 01:11:26;;;;;;;5.68;2.92;;;18.30;99.90;;;;;;5041989;28;20197;-93
2021/07/28 01:13:52;;;;;;;9.95;3.45;;;18.30;99.90;;;;;;5041574;28;20201;-93
2021/07/28 01:16:26;;;;;;;5.60;3.22;;;18.30;99.90;;;;;;5041303;28;20202;-93
2021/07/28 01:18:52;;;;;;;4.85;3.22;;;18.30;99.90;;;;;;5041423;28;20280;-94
2021/07/28 01:21:20;;;;;;;3.75;3.10;;;18.30;99.90;;;;;;5041475;28;20170;-95
2021/07/28 01:23:47;;;;;;;5.10;3.28;;;18.30;99.90;;;;;;5042407;28;20194;-94
2021/07/28 01:26:17;;;;;;;5.13;2.97;;;18.30;99.90;;;;;;5059425;28;20170;-93
2021/07/28 01:28:44;;;;;;;4.88;2.67;;;18.20;99.90;;;;;;5041384;28;20170;-94
2021/07/28 01:31:16;;;;;;;3.97;3.08;;;18.20;99.90;;;;;;5041734;28;20174;-94
2021/07/28 01:33:46;;;;;;;6.60;3.20;;;18.20;99.90;;;;;;5040331;28;20197;-95
2021/07/28 01:36:36;;;;;;;6.30;3.10;;;18.20;99.90;;;;;;5040667;28;20170;-94
2021/07/28 01:39:04;;;;;;;9.18;3.33;;;18.10;99.90;;;;;;5039961;28;20248;-93
2021/07/28 01:41:32;;;;;;;3.67;3.20;;;18.10;99.90;;;;;;5040102;28;20170;-94
2021/07/28 01:44:04;;;;;;;7.50;3.05;;;18.10;99.90;;;;;;5040161;28;20201;-93
2021/07/28 01:46:31;;;;;;;9.05;3.13;;;18.10;99.90;;;;;;5041303;28;20174;-92
2021/07/28 01:49:06;;;;;;;7.72;3.20;;;18.10;99.90;;;;;;5040530;28;20159;-93
2021/07/28 01:51:42;;;;;;;7.40;3.13;;;18.10;99.90;;;;;;5039963;28;20162;-94
2021/07/28 01:54:11;;;;;;;4.57;2.95;;;18.10;99.90;;;;;;5039832;28;20197;-93
2021/07/28 01:56:44;;;;;;;6.07;3.17;;;18.20;99.90;;;;;;5039939;28;20166;-93
2021/07/28 01:59:48;;;;;;;3.17;2.83;;;18.30;99.90;;;;;;5040390;28;20216;-93
2021/07/28 02:02:25;;;;;;;4.30;3.10;;;18.20;99.90;;;;;;5040962;28;20166;-93
2021/07/28 02:04:56;;;;;;;4.80;2.90;;;18.20;99.90;;;;;;5040994;28;20165;-92
2021/07/28 02:07:25;;;;;;;8.63;2.97;;;18.20;99.90;;;;;;5041522;28;20173;-93
2021/07/28 02:09:54;;;;;;;7.32;3.25;;;18.30;99.90;;;;;;5040623;28;20170;-93
2021/07/28 02:12:20;;;;;;;8.18;3.30;;;18.30;99.90;;;;;;5040542;28;20214;-93
2021/07/28 02:14:50;;;;;;;5.95;3.10;;;18.20;99.90;;;;;;5040551;28;20253;-93
2021/07/28 02:17:18;;;;;;;4.65;3.13;;;18.10;99.90;;;;;;5040588;28;20204;-93
2021/07/28 02:19:48;;;;;;;9.60;3.20;;;18.10;99.90;;;;;;5040193;28;20177;-94
2021/07/28 02:22:15;;;;;;;6.22;3.42;;;18.10;99.90;;;;;;5039402;28;20537;-92
2021/07/28 02:24:42;;;;;;;6.13;3.70;;;18.10;99.90;;;;;;5040413;28;20166;-93
2021/07/28 02:27:18;;;;;;;5.82;3.67;;;18.10;99.90;;;;;;5040035;28;20177;-92
2021/07/28 02:30:13;;;;;;;5.30;4.28;;;18.10;99.90;;;;;;5038612;28;20220;-93
2021/07/28 02:32:41;;;;;;;9.32;3.95;;;18.10;99.90;;;;;;5038521;28;20217;-94
2021/07/28 02:35:08;;;;;;;6.70;3.88;;;18.10;99.90;;;;;;5038828;28;20258;-93
2021/07/28 02:37:35;;;;;;;5.85;4.63;;;18.20;99.90;;;;;;5039238;28;20308;-93
2021/07/28 02:40:01;;;;;;;7.70;4.88;;;18.20;99.90;;;;;;5039928;28;20162;-94
2021/07/28 02:42:29;;;;;;;7.28;4.72;;;18.30;99.90;;;;;;5042986;28;20193;-93
2021/07/28 02:44:57;;;;;;;11.88;6.60;;;18.30;99.90;;;;;;5041488;28;20170;-94
2021/07/28 02:47:28;;;;;;;11.23;6.28;;;18.30;99.90;;;;;;5042286;28;20189;-93
2021/07/28 02:49:54;;;;;;;9.98;6.28;;;18.30;99.90;;;;;;5042021;28;20166;-94
2021/07/28 02:52:23;;;;;;;8.30;5.78;;;18.30;99.90;;;;;;5041340;28;20694;-93
2021/07/28 02:55:07;;;;;;;9.20;6.05;;;18.40;99.90;;;;;;5041733;28;20174;-93
2021/07/28 02:57:37;;;;;;;10.65;6.38;;;18.40;99.90;;;;;;5041015;28;20219;-94
2021/07/28 03:00:05;;;;;;;10.02;6.35;;;18.30;99.90;;;;;;5041964;28;20257;-92
2021/07/28 03:02:31;;;;;;;13.05;7.13;;;18.30;99.90;;;;;;5041560;28;20198;-93
2021/07/28 03:05:17;;;;;;;12.02;7.25;;;18.30;99.90;;;;;;5043370;28;20165;-94
2021/07/28 03:07:48;;;;;;;11.57;7.05;;;18.30;99.90;;;;;;5042503;28;20181;-94
2021/07/28 03:10:18;;;;;;;15.88;8.63;;;18.20;99.90;;;;;;5042074;28;20166;-95
2021/07/28 03:12:46;;;;;;;13.38;7.85;;;18.20;99.90;;;;;;5041890;28;20205;-93
2021/07/28 03:15:44;;;;;;;13.35;7.57;;;18.10;99.90;;;;;;5040694;28;20305;-94
2021/07/28 03:18:11;;;;;;;12.93;8.20;;;18.10;99.90;;;;;;5041045;28;20229;-96
2021/07/28 03:20:42;;;;;;;21.30;8.75;;;18.00;99.90;;;;;;5041320;28;20274;-93
2021/07/28 03:23:09;;;;;;;13.15;7.90;;;18.00;99.90;;;;;;5041701;28;20221;-95
2021/07/28 03:25:50;;;;;;;13.18;7.53;;;18.00;99.90;;;;;;5041905;28;20173;-94
2021/07/28 03:28:16;;;;;;;14.25;7.15;;;18.00;99.90;;;;;;5041582;28;20169;-94
2021/07/28 03:30:42;;;;;;;9.68;6.60;;;17.90;99.90;;;;;;5042102;28;20162;-94
2021/07/28 03:33:11;;;;;;;9.25;5.93;;;18.00;99.90;;;;;;5041661;28;20204;-94
2021/07/28 03:35:40;;;;;;;8.73;5.20;;;17.90;99.90;;;;;;5041814;28;20266;-95
2021/07/28 03:38:13;;;;;;;7.55;5.47;;;17.80;99.90;;;;;;5041659;28;20243;-95
2021/07/28 03:41:05;;;;;;;6.65;5.18;;;17.80;99.90;;;;;;5042094;28;20170;-92
2021/07/28 03:43:31;;;;;;;5.63;4.60;;;17.90;99.90;;;;;;5042677;28;20269;-93
2021/07/28 03:46:09;;;;;;;6.55;4.57;;;17.80;99.90;;;;;;5041959;28;20252;-95
2021/07/28 03:48:40;;;;;;;5.60;4.07;;;17.80;99.90;;;;;;5042760;28;20169;-93
2021/07/28 03:51:30;;;;;;;6.88;4.25;;;17.80;99.90;;;;;;5041447;28;20166;-95
2021/07/28 03:53:56;;;;;;;6.03;3.72;;;17.70;99.90;;;;;;5041929;28;20553;-92
2021/07/28 03:56:32;;;;;;;3.97;3.53;;;17.70;99.90;;;;;;5040233;28;20165;-93
2021/07/28 03:59:00;;;;;;;5.47;3.78;;;17.70;99.90;;;;;;5040537;28;20217;-95
2021/07/28 04:01:35;;;;;;;6.60;3.80;;;17.70;99.90;;;;;;5040611;28;20162;-94
2021/07/28 04:04:05;;;;;;;6.13;4.30;;;17.70;99.90;;;;;;5040726;28;20216;-94
2021/07/28 04:07:06;;;;;;;4.68;3.75;;;17.60;99.90;;;;;;5040988;28;20154;-93
2021/07/28 04:09:34;;;;;;;6.85;4.00;;;17.50;99.90;;;;;;5040314;28;20177;-94
2021/07/28 04:12:04;;;;;;;6.25;4.07;;;17.60;99.90;;;;;;5040420;28;20231;-94
2021/07/28 04:14:32;;;;;;;4.60;4.13;;;17.60;99.90;;;;;;5040730;28;20202;-93
2021/07/28 04:17:03;;;;;;;7.13;4.30;;;17.50;99.90;;;;;;5040302;28;20601;-94
2021/07/28 04:19:35;;;;;;;6.20;4.18;;;17.50;99.90;;;;;;5039943;28;20193;-92
2021/07/28 04:22:06;;;;;;;8.93;4.05;;;17.60;99.90;;;;;;5040273;28;20169;-94
2021/07/28 04:24:33;;;;;;;4.93;3.80;;;17.60;99.90;;;;;;5040190;28;20174;-93
2021/07/28 04:27:18;;;;;;;6.05;4.03;;;17.60;99.90;;;;;;5040989;28;20177;-94
2021/07/28 04:29:45;;;;;;;3.92;3.45;;;17.60;99.90;;;;;;5039720;28;20512;-94
2021/07/28 04:32:19;;;;;;;6.10;3.45;;;17.70;99.90;;;;;;5039545;28;20202;-94
2021/07/28 04:34:55;;;;;;;5.60;3.50;;;17.70;99.90;;;;;;5040220;28;20238;-94
2021/07/28 04:37:32;;;;;;;5.05;3.38;;;17.70;99.90;;;;;;5040631;28;20189;-96
2021/07/28 04:40:18;;;;;;;4.50;3.55;;;17.80;99.90;;;;;;5040257;28;20509;-94
2021/07/28 04:42:47;;;;;;;5.57;3.40;;;17.80;99.90;;;;;;5039659;28;20223;-94
2021/07/28 04:45:14;;;;;;;3.55;3.17;;;17.80;99.90;;;;;;5039515;28;20525;-93
2021/07/28 04:47:59;;;;;;;5.35;3.15;;;17.80;99.90;;;;;;5040260;28;20170;-94
2021/07/28 04:50:33;;;;;;;5.97;3.30;;;17.90;99.90;;;;;;5039544;28;20170;-94
2021/07/28 04:52:59;;;;;;;3.67;3.20;;;17.90;99.90;;;;;;5038925;28;20293;-93
2021/07/28 04:55:27;;;;;;;5.18;3.45;;;17.90;99.90;;;;;;5039310;28;20638;-94
2021/07/28 04:57:59;;;;;;;6.40;3.70;;;17.90;99.90;;;;;;5038698;28;20248;-93
2021/07/28 05:00:34;;;;;;;4.63;3.08;;;18.00;99.90;;;;;;5038502;28;20169;-96
2021/07/28 05:03:00;;;;;;;3.67;3.13;;;18.00;99.90;;;;;;5038415;28;20197;-94
2021/07/28 05:05:27;;;;;;;4.28;3.40;;;18.00;99.90;;;;;;5039562;28;20170;-93
2021/07/28 05:07:57;;;;;;;4.38;3.47;;;18.00;99.90;;;;;;5040060;28;20228;-93
2021/07/28 05:10:33;;;;;;;7.78;3.35;;;18.00;99.90;;;;;;5039144;28;20170;-93
2021/07/28 05:12:59;;;;;;;5.05;3.53;;;18.00;99.90;;;;;;5040070;28;20296;-94
2021/07/28 05:15:32;;;;;;;4.80;3.58;;;18.00;99.90;;;;;;5037462;28;20413;-95
2021/07/28 05:18:07;;;;;;;4.65;3.50;;;18.00;99.90;;;;;;5039330;28;20212;-94
2021/07/28 05:20:51;;;;;;;4.15;3.40;;;18.00;99.90;;;;;;5039013;28;20178;-93
2021/07/28 05:23:16;;;;;;;5.45;3.72;;;18.00;99.90;;;;;;5039036;28;20194;-95
2021/07/28 05:25:45;;;;;;;6.35;3.47;;;17.90;99.90;;;;;;5038993;28;20173;-94
2021/07/28 05:28:22;;;;;;;3.72;3.10;;;18.00;99.90;;;;;;5037959;28;20170;-94
2021/07/28 05:30:59;;;;;;;6.80;3.17;;;18.00;99.90;;;;;;5037602;28;20177;-94
2021/07/28 05:33:48;;;;;;;4.38;3.50;;;18.00;99.90;;;;;;5038547;28;20250;-94
2021/07/28 05:36:14;;;;;;;3.85;3.30;;;18.00;99.90;;;;;;5037871;28;20170;-93
2021/07/28 05:38:49;;;;;;;5.00;3.63;;;18.00;99.90;;;;;;5038342;28;20198;-94
2021/07/28 05:41:21;;;;;;;5.57;3.50;;;18.10;99.90;;;;;;5041865;28;20215;-94
2021/07/28 05:43:58;;;;;;;5.95;3.35;;;18.10;99.90;;;;;;5039272;28;20244;-94
2021/07/28 05:46:24;;;;;;;7.05;3.83;;;18.20;99.90;;;;;;5039163;28;20165;-93
2021/07/28 05:49:02;;;;;;;4.07;3.22;;;18.20;99.90;;;;;;5040023;28;20653;-94
2021/07/28 05:51:47;;;;;;;6.75;3.30;;;18.30;99.90;;;;;;5041849;28;20618;-94
2021/07/28 05:54:22;;;;;;;6.22;3.53;;;18.30;99.90;;;;;;5039599;28;20207;-94
2021/07/28 05:56:52;;;;;;;6.97;3.53;;;18.30;99.90;;;;;;5038712;28;20224;-93
2021/07/28 05:59:18;;;;;;;5.47;3.60;;;18.30;99.90;;;;;;5039486;28;20233;-95
2021/07/28 06:01:57;;;;;;;6.88;3.50;;;18.40;99.90;;;;;;5039806;28;20197;-95
2021/07/28 06:04:33;;;;;;;4.10;3.17;;;18.40;99.90;;;;;;5038903;28;20216;-93
2021/07/28 06:06:59;;;;;;;8.07;3.45;;;18.50;99.90;;;;;;5038654;28;20223;-94
2021/07/28 06:09:25;;;;;;;5.20;3.33;;;18.50;99.90;;;;;;5038983;28;20174;-94
2021/07/28 06:11:52;;;;;;;6.60;3.38;;;18.50;99.90;;;;;;5039628;28;20196;-96
2021/07/28 06:14:18;;;;;;;7.63;3.38;;;18.50;99.90;;;;;;5040590;28;20193;-94
2021/07/28 06:16:45;;;;;;;6.97;3.80;;;18.50;99.90;;;;;;5043401;28;20172;-92
2021/07/28 06:19:11;;;;;;;5.43;3.72;;;18.50;99.90;;;;;;5043119;28;20202;-93
2021/07/28 06:21:37;;;;;;;4.95;3.40;;;18.50;99.90;;;;;;5044132;28;20545;-93
2021/07/28 06:24:05;;;;;;;4.72;3.50;;;18.60;99.90;;;;;;5044029;28;20202;-93
2021/07/28 06:26:37;;;;;;;8.13;3.47;;;18.60;99.90;;;;;;5044469;28;20174;-95
2021/07/28 06:29:16;;;;;;;4.88;3.60;;;18.60;99.90;;;;;;5045040;28;20166;-95
2021/07/28 06:31:48;;;;;;;5.90;3.33;;;18.70;99.90;;;;;;5045744;28;20174;-94
2021/07/28 06:34:14;;;;;;;4.55;3.08;;;18.70;99.90;;;;;;5041319;28;20272;-94
2021/07/28 06:36:56;;;;;;;7.93;3.72;;;18.80;99.90;;;;;;5042003;28;20633;-93
2021/07/28 06:39:34;;;;;;;10.68;3.80;;;18.80;99.90;;;;;;5043026;28;20201;-93
2021/07/28 06:42:10;;;;;;;5.20;3.22;;;18.90;99.90;;;;;;5044286;28;20165;-94
2021/07/28 06:44:46;;;;;;;8.38;3.78;;;19.00;99.90;;;;;;5043272;28;20196;-94
2021/07/28 06:47:14;;;;;;;5.72;3.88;;;19.10;99.90;;;;;;5043159;28;20236;-94
2021/07/28 06:49:50;;;;;;;6.88;3.72;;;19.20;99.90;;;;;;5043420;28;20232;-93
2021/07/28 06:52:19;;;;;;;4.55;3.25;;;19.20;99.90;;;;;;5043221;28;20169;-94
2021/07/28 06:54:49;;;;;;;6.07;3.35;;;19.30;99.90;;;;;;5044082;28;20171;-95
2021/07/28 06:57:16;;;;;;;6.70;3.80;;;19.40;99.90;;;;;;5042860;28;20198;-95
2021/07/28 06:59:42;;;;;;;6.43;3.85;;;19.50;99.90;;;;;;5044093;28;20249;-94
2021/07/28 07:02:09;;;;;;;6.10;3.95;;;19.60;99.90;;;;;;5044253;28;20604;-94
2021/07/28 07:04:35;;;;;;;4.35;3.20;;;19.80;99.90;;;;;;5043588;28;20166;-93
2021/07/28 07:07:01;;;;;;;4.75;3.47;;;19.90;99.90;;;;;;5044266;28;20586;-94
2021/07/28 07:09:27;;;;;;;4.13;3.17;;;20.00;99.90;;;;;;5042357;28;20166;-95
2021/07/28 07:11:57;;;;;;;6.68;3.80;;;20.20;99.90;;;;;;5040893;28;20285;-95
2021/07/28 07:14:23;;;;;;;6.00;3.47;;;20.30;99.90;;;;;;5042073;28;20256;-94
2021/07/28 07:16:49;;;;;;;5.50;3.15;;;20.40;99.90;;;;;;5042569;28;20177;-95
2021/07/28 07:19:28;;;;;;;5.95;3.00;;;20.40;99.90;;;;;;5042948;28;20205;-94
2021/07/28 07:22:03;;;;;;;5.60;3.38;;;20.50;99.90;;;;;;5041370;28;20170;-94
2021/07/28 07:24:33;;;;;;;4.72;3.40;;;20.60;99.90;;;;;;5042165;28;20176;-95
2021/07/28 07:27:03;;;;;;;5.85;3.33;;;20.70;99.90;;;;;;5042924;28;20170;-93
2021/07/28 07:29:36;;;;;;;5.60;3.40;;;20.80;99.90;;;;;;5042607;28;20519;-94
2021/07/28 07:32:11;;;;;;;8.43;3.25;;;20.70;99.90;;;;;;5042553;28;20166;-95
2021/07/28 07:34:41;;;;;;;5.90;3.17;;;20.80;99.90;;;;;;5043779;28;20683;-95
2021/07/28 07:37:07;;;;;;;7.63;3.10;;;20.80;99.90;;;;;;5043071;28;20170;-93
2021/07/28 07:39:35;;;;;;;6.75;3.15;;;20.80;99.90;;;;;;5041841;28;20189;-94
2021/07/28 07:42:02;;;;;;;5.70;3.13;;;20.90;99.90;;;;;;5043629;28;20181;-96
2021/07/28 07:44:32;;;;;;;4.05;3.15;;;21.10;99.90;;;;;;5042922;28;20197;-95
2021/07/28 07:47:08;;;;;;;7.85;3.20;;;21.20;99.90;;;;;;5043701;28;20235;-94
2021/07/28 07:49:41;;;;;;;4.28;3.17;;;21.30;99.90;;;;;;5043540;28;20189;-96
2021/07/28 07:52:19;;;;;;;5.43;2.95;;;21.50;99.90;;;;;;5041770;28;20262;-95
2021/07/28 07:54:49;;;;;;;4.45;2.95;;;21.70;99.90;;;;;;5043985;28;20217;-96
2021/07/28 07:57:19;;;;;;;6.00;3.20;;;21.70;99.90;;;;;;5047403;28;20657;-95
2021/07/28 07:59:47;;;;;;;4.63;3.35;;;21.80;99.90;;;;;;5047814;28;20170;-94
2021/07/28 08:02:14;;;;;;;8.10;3.15;;;21.90;99.90;;;;;;5047106;28;20170;-96
2021/07/28 08:04:40;;;;;;;6.88;3.10;;;21.90;99.90;;;;;;5049078;28;20189;-95
2021/07/28 08:07:06;;;;;;;6.25;3.25;;;21.90;99.90;;;;;;5048862;28;20202;-94
2021/07/28 08:09:34;;;;;;;3.92;3.00;;;22.00;99.90;;;;;;5048479;28;20177;-95
2021/07/28 08:12:04;;;;;;;6.55;3.03;;;22.00;99.90;;;;;;5047537;28;20180;-96
2021/07/28 08:14:30;;;;;;;3.70;2.88;;;22.10;99.90;;;;;;5046719;28;20166;-94
2021/07/28 08:17:05;;;;;;;4.90;3.22;;;22.10;99.90;;;;;;5046370;28;20684;-96
2021/07/28 08:19:39;;;;;;;5.53;3.42;;;22.10;99.90;;;;;;5046088;28;20173;-95
2021/07/28 08:22:05;;;;;;;6.18;3.65;;;22.20;99.90;;;;;;5047696;28;20166;-94
2021/07/28 08:24:37;;;;;;;3.50;3.20;;;22.30;99.90;;;;;;5047208;28;20184;-96
2021/07/28 08:27:03;;;;;;;4.18;3.15;;;22.30;99.90;;;;;;5046261;28;20181;-94
2021/07/28 08:29:33;;;;;;;8.70;2.80;;;22.20;99.90;;;;;;5046914;28;20166;-94
2021/07/28 08:32:01;;;;;;;5.55;3.30;;;22.10;99.90;;;;;;5044769;28;20170;-95
2021/07/28 08:34:31;;;;;;;3.83;3.03;;;21.80;99.90;;;;;;5045832;28;20265;-95
2021/07/28 08:36:57;;;;;;;4.93;3.03;;;21.70;99.90;;;;;;5046282;28;20174;-94
2021/07/28 08:39:23;;;;;;;4.03;2.97;;;21.60;99.90;;;;;;5045513;28;20205;-96
2021/07/28 08:42:06;;;;;;;4.10;3.40;;;21.50;99.90;;;;;;5046600;28;20181;-95
2021/07/28 08:44:40;;;;;;;7.32;3.30;;;21.40;99.90;;;;;;5047125;28;20180;-95
2021/07/28 08:47:07;;;;;;;7.35;3.40;;;21.30;99.90;;;;;;5045837;28;20173;-95
2021/07/28 08:49:34;;;;;;;9.05;3.25;;;21.30;99.90;;;;;;5045691;28;20178;-96
2021/07/28 08:52:10;;;;;;;3.97;2.95;;;21.30;99.90;;;;;;5044819;28;20200;-95
2021/07/28 08:54:38;;;;;;;4.50;2.97;;;21.30;99.90;;;;;;5045581;28;20169;-96
2021/07/28 08:57:09;;;;;;;4.32;3.28;;;21.30;99.90;;;;;;5045756;28;20225;-95
2021/07/28 08:59:36;;;;;;;6.22;3.35;;;21.20;99.90;;;;;;5045387;28;20204;-94
2021/07/28 09:02:03;;;;;;;10.80;3.38;;;21.40;99.90;;;;;;5045885;28;20193;-96
2021/07/28 09:04:32;;;;;;;7.50;3.35;;;21.40;99.90;;;;;;5046537;28;20176;-94
2021/07/28 09:07:15;;;;;;;5.10;3.70;;;21.40;99.90;;;;;;5047751;28;20226;-94
2021/07/28 09:09:57;;;;;;;9.77;3.30;;;21.40;99.90;;;;;;5047894;28;20237;-95
2021/07/28 09:12:35;;;;;;;7.78;3.20;;;21.50;99.90;;;;;;5046276;28;20177;-94
2021/07/28 09:15:04;;;;;;;5.53;3.30;;;21.50;99.90;;;;;;5042797;28;20229;-96
2021/07/28 09:17:36;;;;;;;5.28;3.30;;;21.50;99.90;;;;;;5026812;28;20194;-95
2021/07/28 09:20:04;;;;;;;15.95;3.67;;;21.40;99.90;;;;;;5026648;28;20170;-95
2021/07/28 09:22:41;;;;;;;12.30;4.03;;;21.30;99.90;;;;;;5024770;28;20556;-96
2021/07/28 09:25:21;;;;;;;6.75;3.78;;;21.40;99.90;;;;;;5025722;28;20162;-96
2021/07/28 09:27:51;;;;;;;7.18;4.03;;;21.70;99.90;;;;;;5026499;28;20627;-95
2021/07/28 09:30:29;;;;;;;5.70;3.42;;;22.10;99.90;;;;;;5025962;28;20170;-95
2021/07/28 09:33:17;;;;;;;4.50;3.40;;;22.30;99.90;;;;;;5026469;28;20198;-95
2021/07/28 09:36:05;;;;;;;4.32;3.35;;;22.20;99.90;;;;;;5025408;28;20174;-95
2021/07/28 09:38:45;;;;;;;7.75;3.10;;;22.40;99.90;;;;;;5026401;28;20198;-96
2021/07/28 09:41:27;;;;;;;12.50;3.38;;;22.60;99.90;;;;;;5025952;28;20170;-96
2021/07/28 09:44:01;;;;;;;7.43;3.13;;;22.80;99.90;;;;;;5025544;28;20205;-94
2021/07/28 09:46:39;;;;;;;8.60;2.70;;;22.80;99.90;;;;;;5025302;28;20689;-95
2021/07/28 09:49:18;;;;;;;6.05;2.80;;;23.00;99.90;;;;;;5023916;28;20170;-95
2021/07/28 09:51:46;;;;;;;4.72;3.17;;;23.20;99.90;;;;;;5025607;28;20205;-94
2021/07/28 09:54:15;;;;;;;4.28;2.97;;;23.30;99.90;;;;;;5026722;28;20230;-95
2021/07/28 09:56:50;;;;;;;4.03;2.78;;;23.40;99.90;;;;;;5025956;28;20174;-95
2021/07/28 09:59:17;;;;;;;10.52;3.13;;;23.40;99.90;;;;;;5025160;28;20704;-95
2021/07/28 10:01:46;;;;;;;3.78;2.60;;;23.30;99.90;;;;;;5025870;28;20174;-94
2021/07/28 10:04:14;;;;;;;6.75;3.03;;;23.50;99.90;;;;;;5026179;28;20280;-94
2021/07/28 10:06:54;;;;;;;4.95;2.53;;;23.70;99.90;;;;;;5027261;28;20174;-96
2021/07/28 10:09:29;;;;;;;4.05;2.50;;;23.60;99.70;;;;;;5025357;28;20182;-95
2021/07/28 10:11:59;;;;;;;7.32;2.55;;;23.70;99.20;;;;;;5023687;28;20170;-96
2021/07/28 10:14:25;;;;;;;5.40;2.70;;;23.80;99.90;;;;;;5021731;28;20202;-96
2021/07/28 10:16:53;;;;;;;4.88;2.53;;;24.00;99.70;;;;;;5042546;28;20264;-96
2021/07/28 10:19:19;;;;;;;3.78;2.28;;;24.00;98.90;;;;;;5043259;28;20193;-96
2021/07/28 10:21:49;;;;;;;7.07;2.80;;;23.90;99.90;;;;;;5044356;28;20162;-94
2021/07/28 10:24:17;;;;;;;3.25;2.38;;;23.80;99.40;;;;;;5033163;28;20202;-94
2021/07/28 10:26:48;;;;;;;7.32;2.63;;;23.60;99.30;;;;;;5041322;28;20653;-95
2021/07/28 10:29:34;;;;;;;5.68;2.80;;;23.40;99.10;;;;;;5030353;28;20245;-96
2021/07/28 10:31:59;;;;;;;4.38;2.25;;;23.50;99.50;;;;;;5023227;28;20240;-94
2021/07/28 10:37:32;;;;;;;3.47;2.40;;;23.10;98.70;;;;;;5047378;28;20232;-95
2021/07/28 10:40:14;;;;;;;5.00;2.90;;;23.10;99.60;;;;;;5041797;28;20188;-96
2021/07/28 10:42:49;;;;;;;5.20;2.47;;;23.30;99.90;;;;;;5027220;28;20247;-96
2021/07/28 10:45:19;;;;;;;7.45;2.78;;;23.50;99.90;;;;;;5038752;28;20194;-95
2021/07/28 10:47:46;;;;;;;5.03;2.30;;;23.70;98.80;;;;;;5029587;28;20249;-95
2021/07/28 10:50:25;;;;;;;4.55;2.53;;;23.60;98.40;;;;;;5027660;28;20226;-96
2021/07/28 10:52:59;;;;;;;9.07;3.55;;;23.80;99.90;;;;;;5040016;28;20201;-96
2021/07/28 10:55:30;;;;;;;9.05;2.88;;;24.00;99.30;;;;;;5041273;28;20186;-96
2021/07/28 10:58:11;;;;;;;5.80;2.90;;;24.10;99.30;;;;;;5030065;28;20713;-96
2021/07/28 11:00:37;;;;;;;9.20;3.10;;;24.20;97.70;;;;;;5030649;28;20204;-96
2021/07/28 11:03:07;;;;;;;5.50;2.97;;;24.20;98.50;;;;;;5044755;28;20205;-94
2021/07/28 11:05:34;;;;;;;5.05;2.65;;;24.20;97.80;;;;;;5044839;28;20220;-96
2021/07/28 11:08:13;;;;;;;7.00;3.55;;;24.20;97.80;;;;;;5035168;28;20280;-95
2021/07/28 11:10:44;;;;;;;7.78;3.13;;;24.20;98.10;;;;;;5046391;28;20205;-96
2021/07/28 11:13:19;;;;;;;6.10;2.80;;;24.10;98.60;;;;;;5046417;28;20201;-96
2021/07/28 11:16:08;;;;;;;5.30;2.92;;;24.10;98.70;;;;;;5045174;28;20224;-95
2021/07/28 11:18:48;;;;;;;5.28;2.90;;;24.00;98.80;;;;;;5046691;28;20251;-95
2021/07/28 11:21:33;;;;;;;7.07;2.80;;;23.90;98.20;;;;;;5048729;28;20170;-95
2021/07/28 11:24:06;;;;;;;6.50;3.28;;;24.00;97.80;;;;;;5046570;28;20730;-96
2021/07/28 11:26:38;;;;;;;5.28;2.75;;;24.10;97.50;;;;;;5047078;28;20636;-95
2021/07/28 11:29:10;;;;;;;5.13;2.92;;;24.30;97.90;;;;;;5046577;28;20563;-96
2021/07/28 11:31:48;;;;;;;3.20;2.40;;;24.30;97.00;;;;;;5044614;28;20170;-95
2021/07/28 11:34:53;;;;;;;5.32;2.35;;;24.40;97.80;;;;;;5045429;28;20198;-95
2021/07/28 11:37:26;;;;;;;7.38;2.50;;;24.60;97.40;;;;;;5045118;28;20170;-95
2021/07/28 11:39:55;;;;;;;6.38;2.42;;;24.70;96.50;;;;;;5043577;28;20163;-96
2021/07/28 11:42:33;;;;;;;5.50;2.30;;;24.60;96.90;;;;;;5045942;28;20170;-95
2021/07/28 11:45:06;;;;;;;5.43;2.30;;;24.30;96.20;;;;;;5046080;28;20193;-95
2021/07/28 11:47:34;;;;;;;4.68;2.30;;;24.30;97.20;;;;;;5043166;28;20178;-96
2021/07/28 11:50:04;;;;;;;6.05;2.30;;;24.50;96.80;;;;;;5044011;28;20197;-96
2021/07/28 11:52:50;;;;;;;4.85;2.25;;;24.50;96.00;;;;;;5044977;28;20197;-96
2021/07/28 11:55:35;;;;;;;7.22;2.40;;;24.50;96.30;;;;;;5044001;28;20516;-96
2021/07/28 11:58:01;;;;;;;3.72;2.22;;;24.20;96.80;;;;;;5044250;28;20194;-96
2021/07/28 12:00:36;;;;;;;2.70;2.22;;;24.00;96.40;;;;;;5044354;28;20166;-95
2021/07/28 12:03:27;;;;;;;7.72;2.80;;;24.00;96.80;;;;;;5039268;28;20202;-96
2021/07/28 12:06:07;;;;;;;3.78;2.35;;;24.10;97.90;;;;;;5043254;28;20170;-95
2021/07/28 12:08:35;;;;;;;3.55;2.70;;;24.40;98.20;;;;;;5044711;28;20174;-96
2021/07/28 12:11:09;;;;;;;2.50;2.10;;;24.50;96.50;;;;;;5045019;28;20178;-94
2021/07/28 12:13:47;;;;;;;3.25;2.20;;;24.50;96.30;;;;;;5045194;28;20243;-94
2021/07/28 12:16:22;;;;;;;2.85;2.10;;;24.40;96.30;;;;;;5045012;28;20226;-95
2021/07/28 12:18:50;;;;;;;4.85;2.58;;;24.70;96.30;;;;;;5042971;28;20201;-94
2021/07/28 12:21:27;;;;;;;10.68;2.60;;;24.90;98.00;;;;;;5042749;28;20166;-94
2021/07/28 12:24:06;;;;;;;5.35;2.17;;;25.20;95.60;;;;;;5043086;28;20193;-94
2021/07/28 12:26:48;;;;;;;14.23;2.30;;;25.20;94.60;;;;;;5042917;28;20512;-95
2021/07/28 12:29:34;;;;;;;11.20;2.72;;;25.00;96.00;;;;;;5041474;28;20166;-95
2021/07/28 12:32:13;;;;;;;4.22;2.08;;;24.70;96.20;;;;;;5043653;28;20522;-95
2021/07/28 12:34:39;;;;;;;3.67;1.90;;;24.60;95.60;;;;;;5043622;28;20243;-93
2021/07/28 12:37:24;;;;;;;2.92;2.05;;;24.70;95.60;;;;;;5044178;28;20173;-96
2021/07/28 12:40:03;;;;;;;3.75;2.00;;;24.90;96.20;;;;;;5043191;28;20166;-94
2021/07/28 12:42:32;;;;;;;2.97;2.00;;;25.00;95.30;;;;;;5042063;28;20198;-96
2021/07/28 12:45:10;;;;;;;2.95;2.20;;;25.10;95.10;;;;;;5043933;28;20160;-94
2021/07/28 12:47:37;;;;;;;5.22;2.40;;;25.00;95.30;;;;;;5044006;28;20176;-95
2021/07/28 12:50:06;;;;;;;6.97;2.67;;;24.80;95.00;;;;;;5041242;28;20163;-95
2021/07/28 12:52:35;;;;;;;8.10;2.50;;;24.70;95.50;;;;;;5042603;28;20198;-96
2021/07/28 12:55:02;;;;;;;5.63;2.17;;;25.00;95.00;;;;;;5041817;28;20176;-94
2021/07/28 12:57:47;;;;;;;2.88;2.25;;;25.10;94.10;;;;;;5041354;28;20208;-95
2021/07/28 13:00:22;;;;;;;4.03;2.13;;;25.00;94.80;;;;;;5043208;28;20163;-96
2021/07/28 13:02:50;;;;;;;4.65;2.35;;;24.90;94.40;;;;;;5042297;28;20190;-94
2021/07/28 13:05:21;;;;;;;2.22;2.03;;;24.70;94.50;;;;;;5041982;28;20232;-96
2021/07/28 13:07:59;;;;;;;3.03;2.10;;;24.50;94.90;;;;;;5041823;28;20176;-96
2021/07/28 13:10:26;;;;;;;4.28;2.40;;;24.50;96.20;;;;;;5041197;28;20205;-95
2021/07/28 13:13:06;;;;;;;6.35;2.38;;;24.70;95.10;;;;;;5040554;28;20205;-96
2021/07/28 13:15:43;;;;;;;6.40;2.65;;;24.90;95.00;;;;;;5040561;28;20232;-95
2021/07/28 13:18:14;;;;;;;15.75;3.47;;;25.20;94.30;;;;;;5041019;28;20246;-94
2021/07/28 13:20:41;;;;;;;4.18;2.60;;;25.30;94.70;;;;;;5042822;28;20166;-95